Time;durP1;ratioP1;P1;durP2;ratioP2;P2;SDS_P1;SDS_P2;PMS_P1;PMS_P2;Temp;Humidity;BMP_temperature;BMP_pressure;BME280_temperature;BME280_humidity;BME280_pressure;Samples;Min_cycle;Max_cycle;Signal;HPM_P1;HPM_P2
2022/01/20 00:03:36;;;;;;;21.23;3.42;;;3.30;99.90;;;;;;4965904;28;20055;-48
2022/01/20 00:27:31;;;;;;;18.58;3.30;;;3.20;99.90;;;;;;5025073;28;20049;-46
2022/01/20 00:38:26;;;;;;;18.73;3.40;;;3.20;99.90;;;;;;4962453;28;20498;-47
2022/01/20 00:40:53;;;;;;;16.55;2.90;;;3.30;99.90;;;;;;4969146;28;20276;-47
2022/01/20 00:43:19;;;;;;;16.92;3.38;;;3.30;99.90;;;;;;4963266;28;20077;-49
2022/01/20 00:45:47;;;;;;;20.77;3.45;;;3.50;99.90;;;;;;4963417;28;20134;-48
2022/01/20 00:48:12;;;;;;;16.50;3.95;;;3.60;99.90;;;;;;4963164;28;20195;-47
2022/01/20 00:50:38;;;;;;;16.85;3.67;;;3.60;99.90;;;;;;4967416;28;20577;-47
2022/01/20 00:53:04;;;;;;;14.80;2.80;;;3.70;99.90;;;;;;4972646;28;20042;-50
2022/01/20 00:55:31;;;;;;;12.07;3.05;;;3.70;99.90;;;;;;4976681;28;20058;-47
2022/01/20 00:57:56;;;;;;;19.50;2.85;;;3.80;99.90;;;;;;4947388;28;20066;-49
2022/01/20 01:00:22;;;;;;;16.10;2.15;;;3.80;99.90;;;;;;4962748;28;20050;-50
2022/01/20 01:02:48;;;;;;;11.00;1.80;;;3.90;99.90;;;;;;4976277;28;20560;-50
2022/01/20 01:05:14;;;;;;;11.57;3.20;;;3.80;99.90;;;;;;4982146;28;20138;-50
2022/01/20 01:07:52;;;;;;;6.60;1.70;;;3.70;99.90;;;;;;4983281;28;20145;-47
2022/01/20 01:10:29;;;;;;;7.20;1.65;;;3.70;99.90;;;;;;4992130;28;20539;-46
2022/01/20 01:15:31;;;;;;;8.13;1.50;;;3.60;99.90;;;;;;5009631;28;20057;-47
2022/01/20 01:23:26;;;;;;;11.52;2.30;;;3.30;99.90;;;;;;5023967;28;20049;-48
2022/01/20 01:25:55;;;;;;;13.25;2.00;;;3.30;99.90;;;;;;5010095;28;20045;-47
2022/01/20 01:28:24;;;;;;;5.05;1.40;;;3.30;99.90;;;;;;5023201;28;20452;-47
2022/01/20 01:33:37;;;;;;;8.70;1.65;;;3.40;99.90;;;;;;5023186;28;20605;-46
2022/01/20 01:36:05;;;;;;;15.95;2.67;;;3.40;99.90;;;;;;5023626;28;20107;-47
2022/01/20 01:38:38;;;;;;;8.77;1.88;;;3.40;99.90;;;;;;5021358;28;20415;-46
2022/01/20 01:41:11;;;;;;;13.88;2.33;;;3.50;99.90;;;;;;5022375;28;20467;-46
2022/01/20 01:43:41;;;;;;;;;;;3.60;99.90;;;;;;5022114;28;20065;-48
2022/01/20 01:46:08;;;;;;;11.30;2.28;;;3.60;99.90;;;;;;5022160;28;19932;-46
2022/01/20 01:48:34;;;;;;;14.00;2.50;;;3.60;99.90;;;;;;5022828;28;20491;-48
2022/01/20 01:51:00;;;;;;;12.93;2.00;;;3.70;99.90;;;;;;5021398;28;20404;-47
2022/01/20 01:53:29;;;;;;;12.90;2.15;;;3.80;99.90;;;;;;5023585;28;20502;-47
2022/01/20 01:55:55;;;;;;;17.90;1.83;;;3.80;99.90;;;;;;5024943;28;20132;-47
2022/01/20 01:58:21;;;;;;;4.88;0.93;;;3.80;99.90;;;;;;5020770;28;20079;-46
2022/01/20 02:00:47;;;;;;;4.80;1.38;;;3.80;99.90;;;;;;5022219;28;20053;-48
2022/01/20 02:03:14;;;;;;;7.47;1.00;;;3.80;99.90;;;;;;5021908;28;20057;-46
2022/01/20 02:19:34;;;;;;;9.93;1.40;;;3.70;99.90;;;;;;4902549;29;20115;-49
2022/01/20 02:22:02;;;;;;;11.65;1.75;;;3.70;99.90;;;;;;4902048;29;20143;-46
2022/01/20 02:24:29;;;;;;;13.23;2.25;;;3.70;99.90;;;;;;4908324;29;20056;-47
2022/01/20 02:26:56;;;;;;;12.85;2.08;;;3.60;99.90;;;;;;4887362;29;20511;-47
2022/01/20 02:29:23;;;;;;;18.98;2.53;;;3.60;99.90;;;;;;4903335;29;20618;-46
2022/01/20 02:31:56;;;;;;;29.13;3.70;;;3.70;99.90;;;;;;4900735;29;20064;-47
2022/01/20 02:34:28;;;;;;;11.10;2.00;;;3.70;99.90;;;;;;4905479;29;20114;-47
2022/01/20 02:36:56;;;;;;;18.27;2.72;;;3.70;99.90;;;;;;4913526;29;20543;-48
2022/01/20 02:47:25;;;;;;;15.35;2.47;;;3.80;99.90;;;;;;4941944;28;20577;-47
2022/01/20 02:49:51;;;;;;;15.60;2.35;;;3.70;99.90;;;;;;4993469;28;20132;-48
2022/01/20 02:52:17;;;;;;;15.57;2.80;;;3.60;99.90;;;;;;5002140;28;20060;-46
2022/01/20 02:54:46;;;;;;;16.50;2.60;;;3.50;99.90;;;;;;5001301;28;20045;-47
2022/01/20 02:57:18;;;;;;;24.73;3.90;;;3.50;99.90;;;;;;5002945;28;20054;-48
2022/01/20 02:59:44;;;;;;;24.92;3.35;;;3.50;99.90;;;;;;5001833;28;20053;-47
2022/01/20 03:02:10;;;;;;;16.15;2.90;;;3.60;99.90;;;;;;5002044;28;20536;-47
2022/01/20 03:04:38;;;;;;;15.82;3.80;;;3.60;99.90;;;;;;4999324;28;20045;-50
2022/01/20 03:07:05;;;;;;;16.90;4.53;;;3.60;99.90;;;;;;5003682;28;20045;-47
2022/01/20 03:09:31;;;;;;;27.33;4.75;;;3.60;99.90;;;;;;5002128;28;20188;-47
2022/01/20 03:11:57;;;;;;;17.33;4.97;;;3.70;99.90;;;;;;5006747;28;20125;-47
2022/01/20 03:14:23;;;;;;;23.35;4.25;;;3.70;99.90;;;;;;5048996;28;20922;-46
2022/01/20 03:16:50;;;;;;;22.92;5.05;;;3.70;99.90;;;;;;5030154;28;20057;-54
2022/01/20 03:19:31;;;;;;;16.80;3.92;;;3.80;99.90;;;;;;5046853;28;20060;-47
2022/01/20 03:21:56;;;;;;;17.15;4.63;;;3.70;99.90;;;;;;5026386;28;20128;-47
2022/01/20 03:24:22;;;;;;;16.67;3.25;;;3.60;99.90;;;;;;5045112;28;20045;-48
2022/01/20 03:26:48;;;;;;;28.13;4.30;;;3.50;99.90;;;;;;5037646;28;20052;-49
2022/01/20 03:29:14;;;;;;;25.88;5.15;;;3.50;99.90;;;;;;5046027;28;20045;-47
2022/01/20 03:31:40;;;;;;;19.35;4.60;;;3.40;99.90;;;;;;5023003;28;20076;-47
2022/01/20 03:34:06;;;;;;;27.17;4.47;;;3.40;99.90;;;;;;5042907;28;20048;-49
2022/01/20 03:36:34;;;;;;;33.15;5.97;;;3.30;99.90;;;;;;5029948;28;20586;-47
2022/01/20 03:39:00;;;;;;;28.67;5.35;;;3.30;99.90;;;;;;5027678;28;20057;-49
2022/01/20 03:41:25;;;;;;;24.67;4.78;;;3.30;99.90;;;;;;5043860;28;20041;-47
2022/01/20 03:43:51;;;;;;;37.15;8.05;;;3.30;99.90;;;;;;5044879;28;20502;-47
2022/01/20 03:46:17;;;;;;;29.30;5.00;;;3.40;99.90;;;;;;5045219;28;20079;-49
2022/01/20 03:48:53;;;;;;;31.85;5.07;;;3.30;99.90;;;;;;5045695;28;20084;-51
2022/01/20 03:51:22;;;;;;;25.05;4.60;;;3.40;99.90;;;;;;5027406;28;20060;-46
2022/01/20 03:53:50;;;;;;;29.05;6.07;;;3.40;99.90;;;;;;5044537;28;20044;-48
2022/01/20 03:56:17;;;;;;;24.25;4.63;;;3.40;99.90;;;;;;5048001;28;20151;-47
2022/01/20 03:58:44;;;;;;;31.95;5.00;;;3.50;99.90;;;;;;5045620;28;20049;-47
2022/01/20 04:01:11;;;;;;;29.48;4.53;;;3.50;99.90;;;;;;5026608;28;20122;-47
2022/01/20 04:03:37;;;;;;;24.02;4.18;;;3.40;99.90;;;;;;5025442;28;20594;-49
2022/01/20 04:06:02;;;;;;;26.40;5.05;;;3.50;99.90;;;;;;5044330;28;20450;-47
2022/01/20 04:08:40;;;;;;;17.55;4.90;;;3.40;99.90;;;;;;5045005;28;20147;-48
2022/01/20 04:11:08;;;;;;;19.23;3.78;;;3.40;99.90;;;;;;5043803;28;20053;-49
2022/01/20 04:13:35;;;;;;;15.98;3.75;;;3.40;99.90;;;;;;5045037;28;20067;-47
2022/01/20 04:16:11;;;;;;;23.50;4.22;;;3.30;99.90;;;;;;5045840;28;20092;-48
2022/01/20 04:18:37;;;;;;;20.23;3.58;;;3.40;99.90;;;;;;5045799;28;20056;-47
2022/01/20 04:21:03;;;;;;;20.92;3.22;;;3.40;99.90;;;;;;5045765;28;20488;-48
2022/01/20 04:23:34;;;;;;;15.50;3.15;;;3.30;99.90;;;;;;5046303;28;20107;-49
2022/01/20 04:25:59;;;;;;;17.38;3.67;;;3.30;99.90;;;;;;5030095;28;20049;-49
2022/01/20 04:28:25;;;;;;;21.50;3.72;;;3.30;99.90;;;;;;5024392;28;20459;-47
2022/01/20 04:30:51;;;;;;;15.55;3.10;;;3.30;99.90;;;;;;5039089;28;20053;-47
2022/01/20 04:33:16;;;;;;;16.35;3.35;;;3.30;99.90;;;;;;5044522;28;20084;-47
2022/01/20 04:35:42;;;;;;;20.67;3.47;;;3.30;99.90;;;;;;5026380;28;20040;-48
2022/01/20 04:38:08;;;;;;;18.25;2.85;;;3.20;99.90;;;;;;5043316;28;20183;-48
2022/01/20 04:40:40;;;;;;;22.33;2.65;;;3.20;99.90;;;;;;5044692;28;20044;-47
2022/01/20 04:43:06;;;;;;;13.63;2.22;;;3.10;99.90;;;;;;5023543;28;20063;-47
2022/01/20 04:45:38;;;;;;;20.05;4.88;;;3.10;99.90;;;;;;5025767;28;20060;-48
2022/01/20 04:58:52;;;;;;;14.95;3.95;;;2.50;99.90;;;;;;5043858;28;20045;-46
2022/01/20 05:01:18;;;;;;;16.30;2.95;;;2.40;99.90;;;;;;5044204;28;20045;-47
2022/01/20 05:03:45;;;;;;;15.77;3.00;;;2.30;99.90;;;;;;5043239;28;20040;-47
2022/01/20 05:06:11;;;;;;;15.00;2.33;;;2.30;99.90;;;;;;5044771;28;20106;-47
2022/01/20 05:08:38;;;;;;;10.57;2.38;;;2.20;99.90;;;;;;5025556;28;20590;-47
2022/01/20 05:11:11;;;;;;;11.23;2.15;;;2.10;99.90;;;;;;5044130;28;20122;-47
2022/01/20 05:13:40;;;;;;;16.55;2.90;;;2.00;99.90;;;;;;5025734;28;20059;-46
2022/01/20 05:16:06;;;;;;;20.90;3.63;;;2.00;99.90;;;;;;5043996;28;20055;-47
2022/01/20 05:18:32;;;;;;;21.48;2.95;;;1.90;99.90;;;;;;5026570;28;20061;-46
2022/01/20 05:20:58;;;;;;;14.25;2.60;;;1.90;99.90;;;;;;5043351;28;20491;-47
2022/01/20 05:23:24;;;;;;;13.75;4.50;;;1.90;99.90;;;;;;5043331;28;20049;-47
2022/01/20 05:25:50;;;;;;;18.10;2.53;;;1.90;99.90;;;;;;5034196;28;20053;-47
2022/01/20 05:28:16;;;;;;;13.27;3.65;;;1.90;99.90;;;;;;5042555;28;20049;-48
2022/01/20 05:30:41;;;;;;;22.48;3.45;;;1.90;99.90;;;;;;5043988;28;20514;-50
2022/01/20 05:33:08;;;;;;;13.82;2.72;;;1.90;99.90;;;;;;5044231;28;20487;-47
2022/01/20 05:35:34;;;;;;;14.00;3.05;;;1.90;99.90;;;;;;5045242;28;20459;-47
2022/01/20 05:38:00;;;;;;;17.60;3.58;;;1.90;99.90;;;;;;5044626;28;20131;-47
2022/01/20 05:40:41;;;;;;;19.40;3.53;;;1.90;99.90;;;;;;5044719;28;20048;-48
2022/01/20 05:43:07;;;;;;;18.33;3.42;;;1.90;99.90;;;;;;5044897;28;20116;-47
2022/01/20 05:45:33;;;;;;;13.85;3.55;;;1.90;99.90;;;;;;5044401;28;20505;-49
2022/01/20 05:48:10;;;;;;;17.25;2.78;;;1.90;99.90;;;;;;5047303;28;20098;-50
2022/01/20 05:50:35;;;;;;;17.70;3.90;;;2.00;99.90;;;;;;5041587;28;20068;-50
2022/01/20 05:53:02;;;;;;;21.92;3.00;;;2.10;99.90;;;;;;5044152;28;20056;-50
2022/01/20 05:55:28;;;;;;;16.60;3.22;;;2.10;99.90;;;;;;5044056;28;20052;-50
2022/01/20 05:57:54;;;;;;;20.38;3.30;;;2.10;99.90;;;;;;5042752;28;20866;-50
2022/01/20 06:00:23;;;;;;;13.77;3.10;;;2.10;99.90;;;;;;5024166;28;20601;-47
2022/01/20 06:05:33;;;;;;;19.27;3.33;;;2.00;99.90;;;;;;5037369;28;20040;-49
2022/01/20 06:07:59;;;;;;;19.58;3.28;;;2.00;99.90;;;;;;5042458;28;20479;-50
2022/01/20 06:10:25;;;;;;;21.20;2.95;;;2.00;99.90;;;;;;5041714;28;20075;-48
2022/01/20 06:12:50;;;;;;;17.90;2.53;;;2.10;99.90;;;;;;5042252;28;20480;-47
2022/01/20 06:15:16;;;;;;;14.55;3.05;;;2.10;99.90;;;;;;5025001;28;20539;-47
2022/01/20 06:17:42;;;;;;;20.30;3.22;;;2.10;99.90;;;;;;5023724;28;20049;-47
2022/01/20 06:20:11;;;;;;;20.38;4.35;;;2.10;99.90;;;;;;5023884;28;20063;-47
2022/01/20 06:22:38;;;;;;;19.48;3.75;;;2.10;99.90;;;;;;5041559;28;20053;-47
2022/01/20 06:25:05;;;;;;;16.67;4.50;;;2.10;99.90;;;;;;5040213;28;20076;-48
2022/01/20 06:27:31;;;;;;;14.98;3.22;;;2.10;99.90;;;;;;5034550;28;20179;-47
2022/01/20 06:29:57;;;;;;;16.95;3.97;;;2.10;99.90;;;;;;5022874;28;20174;-47
2022/01/20 06:32:22;;;;;;;12.38;3.35;;;2.10;99.90;;;;;;5041999;28;20041;-49
2022/01/20 06:34:48;;;;;;;17.35;3.80;;;2.10;99.90;;;;;;5046777;28;20511;-47
2022/01/20 06:37:14;;;;;;;17.88;3.75;;;2.10;99.90;;;;;;5042616;28;20469;-47
2022/01/20 06:39:40;;;;;;;17.38;3.72;;;2.10;99.90;;;;;;5041718;28;20134;-48
2022/01/20 06:42:06;;;;;;;17.80;3.13;;;2.10;99.90;;;;;;5041503;28;20045;-48
2022/01/20 06:44:42;;;;;;;18.40;3.33;;;2.10;99.90;;;;;;5037849;28;20052;-47
2022/01/20 06:47:08;;;;;;;17.05;3.45;;;2.00;99.90;;;;;;5024024;28;20063;-47
2022/01/20 06:49:35;;;;;;;20.75;3.58;;;2.00;99.90;;;;;;5041773;28;20108;-49
2022/01/20 06:52:01;;;;;;;15.95;2.60;;;2.10;99.90;;;;;;5042627;28;20045;-50
2022/01/20 06:54:27;;;;;;;17.58;3.65;;;2.10;99.90;;;;;;5043445;28;20049;-49
2022/01/20 06:56:53;;;;;;;13.57;2.63;;;2.10;99.90;;;;;;5031112;28;20060;-47
2022/01/20 06:59:19;;;;;;;12.85;3.00;;;2.00;99.90;;;;;;5042279;28;20036;-51
2022/01/20 07:01:47;;;;;;;16.00;2.92;;;2.00;99.90;;;;;;5043456;28;20052;-47
2022/01/20 07:04:15;;;;;;;11.13;2.65;;;2.00;99.90;;;;;;5043427;28;20056;-46
2022/01/20 07:06:42;;;;;;;15.23;2.65;;;1.90;99.90;;;;;;5041701;28;20143;-47
2022/01/20 07:09:09;;;;;;;11.85;2.60;;;2.00;99.90;;;;;;5041035;28;20049;-47
2022/01/20 07:11:35;;;;;;;14.98;2.78;;;2.10;99.90;;;;;;5040324;28;20053;-46
2022/01/20 07:14:01;;;;;;;22.58;4.20;;;2.20;99.90;;;;;;5041582;28;20336;-48
2022/01/20 07:16:28;;;;;;;26.98;4.50;;;2.20;99.90;;;;;;5041765;28;20052;-47
2022/01/20 07:18:55;;;;;;;22.88;4.47;;;2.30;99.90;;;;;;5023515;28;20527;-50
2022/01/20 07:21:21;;;;;;;17.00;4.00;;;2.30;99.90;;;;;;5023254;28;20056;-48
2022/01/20 07:23:47;;;;;;;19.00;3.20;;;2.30;99.90;;;;;;5041379;28;20069;-47
2022/01/20 07:26:13;;;;;;;19.85;3.13;;;2.30;99.90;;;;;;5025919;28;20044;-48
2022/01/20 07:28:39;;;;;;;17.15;3.13;;;2.20;99.90;;;;;;5041864;28;20407;-47
2022/01/20 07:31:06;;;;;;;19.55;3.30;;;2.20;99.90;;;;;;5040463;28;20510;-47
2022/01/20 07:33:37;;;;;;;13.93;3.17;;;2.10;99.90;;;;;;5033105;28;20053;-47
2022/01/20 07:36:03;;;;;;;15.65;2.88;;;2.10;99.90;;;;;;5042320;28;20056;-47
2022/01/20 07:38:30;;;;;;;14.32;3.33;;;2.00;99.90;;;;;;5042160;28;20049;-50
2022/01/20 07:40:56;;;;;;;16.13;2.53;;;1.90;99.90;;;;;;5023852;28;20117;-47
2022/01/20 07:43:22;;;;;;;18.77;2.70;;;1.90;99.90;;;;;;5041450;28;20115;-48
2022/01/20 07:45:48;;;;;;;16.67;3.15;;;1.80;99.90;;;;;;5041807;28;20049;-49
2022/01/20 07:48:14;;;;;;;22.70;3.40;;;1.80;99.90;;;;;;5040938;28;20055;-47
2022/01/20 07:50:40;;;;;;;22.75;3.83;;;1.80;99.90;;;;;;5040760;28;20057;-47
2022/01/20 07:53:07;;;;;;;23.25;3.65;;;1.80;99.90;;;;;;5041233;28;20071;-49
2022/01/20 07:55:32;;;;;;;16.30;3.05;;;1.90;99.90;;;;;;5046000;28;20095;-46
2022/01/20 07:58:03;;;;;;;21.48;3.45;;;1.90;99.90;;;;;;5046642;28;20049;-49
2022/01/20 08:00:29;;;;;;;24.08;3.78;;;1.90;99.90;;;;;;5046110;28;20132;-48
2022/01/20 08:02:55;;;;;;;20.20;4.85;;;2.00;99.90;;;;;;5037956;28;20040;-49
2022/01/20 08:05:20;;;;;;;21.70;4.00;;;2.00;99.90;;;;;;5048890;28;20099;-50
2022/01/20 08:07:48;;;;;;;26.70;3.88;;;2.00;99.90;;;;;;5017537;28;20063;-50
2022/01/20 08:10:14;;;;;;;14.95;3.67;;;2.00;99.90;;;;;;5044746;28;20052;-51
2022/01/20 08:12:40;;;;;;;24.92;4.28;;;2.00;99.90;;;;;;5043001;28;20048;-50
2022/01/20 08:15:09;;;;;;;19.77;4.55;;;2.10;99.90;;;;;;5043876;28;20103;-49
2022/01/20 08:17:36;;;;;;;22.65;3.65;;;2.20;99.90;;;;;;5016861;28;20117;-47
2022/01/20 08:20:03;;;;;;;18.67;3.47;;;2.20;99.90;;;;;;5044572;28;20053;-47
2022/01/20 08:22:33;;;;;;;16.70;3.55;;;2.40;99.90;;;;;;5044043;28;20068;-47
2022/01/20 08:25:03;;;;;;;20.55;3.70;;;2.40;99.90;;;;;;5022865;28;20136;-48
2022/01/20 08:27:29;;;;;;;14.55;3.28;;;2.50;99.90;;;;;;5037267;28;20049;-47
2022/01/20 08:29:55;;;;;;;18.25;4.57;;;2.60;99.90;;;;;;5044511;28;20567;-46
2022/01/20 08:32:20;;;;;;;17.17;3.83;;;2.60;99.90;;;;;;5030969;28;20057;-47
2022/01/20 08:34:49;;;;;;;25.17;4.63;;;2.60;99.90;;;;;;5045903;28;20061;-47
2022/01/20 08:37:18;;;;;;;28.75;3.97;;;2.60;99.90;;;;;;5046203;28;20499;-47
2022/01/20 08:39:44;;;;;;;18.55;3.40;;;2.60;99.90;;;;;;5028074;28;20385;-47
2022/01/20 08:42:11;;;;;;;20.58;2.95;;;2.60;99.90;;;;;;5045985;28;20132;-49
2022/01/20 08:44:38;;;;;;;15.75;2.75;;;2.50;99.90;;;;;;5042127;28;20408;-46
2022/01/20 08:47:09;;;;;;;15.02;3.13;;;2.50;99.90;;;;;;5044090;28;20040;-46
2022/01/20 08:49:36;;;;;;;17.40;2.60;;;2.50;99.90;;;;;;5044416;28;20565;-46
2022/01/20 08:52:03;;;;;;;17.13;3.10;;;2.60;99.90;;;;;;5011862;28;20052;-48
2022/01/20 08:54:34;;;;;;;10.35;2.92;;;2.60;99.90;;;;;;5044581;28;20055;-48
2022/01/20 08:57:00;;;;;;;19.33;3.15;;;2.70;99.90;;;;;;5043607;28;20060;-49
2022/01/20 08:59:37;;;;;;;15.93;2.80;;;2.80;99.90;;;;;;5025026;28;20075;-47
2022/01/20 09:02:03;;;;;;;17.73;2.53;;;2.90;99.90;;;;;;5037242;28;20049;-47
2022/01/20 09:04:29;;;;;;;20.20;4.80;;;3.00;99.90;;;;;;5040750;28;20072;-47
2022/01/20 09:06:54;;;;;;;25.38;4.00;;;3.20;99.90;;;;;;5044181;28;20400;-47
2022/01/20 09:09:21;;;;;;;14.88;3.78;;;3.40;99.90;;;;;;5043847;28;20083;-48
2022/01/20 09:12:03;;;;;;;12.73;2.97;;;3.40;99.90;;;;;;5045740;28;20049;-48
2022/01/20 09:17:13;;;;;;;13.38;3.53;;;3.30;99.90;;;;;;5045098;28;20059;-57
2022/01/20 09:19:43;;;;;;;18.25;3.30;;;3.20;99.90;;;;;;5046878;28;20049;-49
2022/01/20 09:22:10;;;;;;;20.60;3.63;;;3.10;99.90;;;;;;5025439;28;20060;-46
2022/01/20 09:24:37;;;;;;;17.98;3.00;;;3.00;99.90;;;;;;5039684;28;20095;-47
2022/01/20 09:27:03;;;;;;;17.55;3.67;;;3.00;99.90;;;;;;5033911;28;20045;-47
2022/01/20 09:29:32;;;;;;;19.00;3.67;;;3.10;99.90;;;;;;5043177;28;20124;-50
2022/01/20 09:31:59;;;;;;;16.98;3.50;;;3.10;99.90;;;;;;5043263;28;20052;-47
2022/01/20 09:34:25;;;;;;;18.23;4.95;;;3.10;99.90;;;;;;5029447;28;20148;-48
2022/01/20 09:36:56;;;;;;;16.85;4.13;;;3.20;99.90;;;;;;5045493;28;20048;-47
2022/01/20 09:39:25;;;;;;;21.50;5.00;;;3.20;99.90;;;;;;5025954;28;20439;-47
2022/01/20 09:41:51;;;;;;;15.00;2.80;;;3.20;99.90;;;;;;5043979;28;20541;-47
2022/01/20 09:44:17;;;;;;;17.00;3.00;;;3.20;99.90;;;;;;5048740;28;20045;-50
2022/01/20 09:46:46;;;;;;;12.73;3.20;;;3.30;99.90;;;;;;5045110;28;20496;-47
2022/01/20 09:49:12;;;;;;;14.57;2.80;;;3.30;99.90;;;;;;5044630;28;20415;-47
2022/01/20 09:51:39;;;;;;;20.48;3.25;;;3.40;99.90;;;;;;5037149;28;20125;-47
2022/01/20 09:54:06;;;;;;;13.68;3.00;;;3.50;99.90;;;;;;5027230;28;20453;-47
2022/01/20 09:56:37;;;;;;;24.42;3.55;;;3.50;99.90;;;;;;5047552;28;20053;-47
2022/01/20 09:59:06;;;;;;;12.50;3.25;;;3.70;99.90;;;;;;5045677;28;20056;-48
2022/01/20 10:01:56;;;;;;;17.23;3.65;;;3.80;99.90;;;;;;5044573;28;20182;-49
2022/01/20 10:04:23;;;;;;;18.88;2.88;;;4.00;99.90;;;;;;5027742;28;20052;-50
2022/01/20 10:06:55;;;;;;;13.15;3.28;;;4.10;99.90;;;;;;5045027;28;20503;-47
2022/01/20 10:09:29;;;;;;;17.17;2.92;;;4.20;99.90;;;;;;5035058;28;20094;-48
2022/01/20 10:12:10;;;;;;;10.68;2.47;;;4.20;99.90;;;;;;5044467;28;20300;-47
2022/01/20 10:14:57;;;;;;;17.65;3.22;;;4.10;99.90;;;;;;5046208;28;20060;-47
2022/01/20 10:17:32;;;;;;;14.30;2.45;;;4.00;99.90;;;;;;5046103;28;20049;-47
2022/01/20 10:20:06;;;;;;;21.15;3.28;;;4.10;99.90;;;;;;5045729;28;20041;-50
2022/01/20 10:22:56;;;;;;;16.30;3.80;;;4.20;99.90;;;;;;5043589;28;20144;-48
2022/01/20 10:25:24;;;;;;;12.15;3.70;;;4.40;99.90;;;;;;5022604;28;20047;-52
2022/01/20 10:27:59;;;;;;;15.65;2.92;;;4.40;99.90;;;;;;5041826;28;20072;-50
2022/01/20 10:30:41;;;;;;;18.45;3.67;;;4.40;99.90;;;;;;5035093;28;20140;-48
2022/01/20 10:33:06;;;;;;;16.45;3.83;;;4.40;99.90;;;;;;5042413;28;20067;-48
2022/01/20 10:35:34;;;;;;;21.38;4.60;;;4.40;99.90;;;;;;5042125;28;20048;-48
2022/01/20 10:38:13;;;;;;;28.50;3.63;;;4.50;99.90;;;;;;5024648;28;20590;-47
2022/01/20 10:40:59;;;;;;;19.63;3.50;;;4.50;99.90;;;;;;5036149;28;20053;-47
2022/01/20 10:43:31;;;;;;;19.05;3.67;;;4.60;99.90;;;;;;5034277;28;20115;-47
2022/01/20 10:46:12;;;;;;;26.02;9.48;;;4.80;99.90;;;;;;5042977;28;20084;-48
2022/01/20 10:48:45;;;;;;;20.95;3.63;;;4.80;99.90;;;;;;5043157;28;20080;-47
2022/01/20 10:51:19;;;;;;;26.15;5.10;;;4.90;99.90;;;;;;5040760;28;20475;-47
2022/01/20 10:53:45;;;;;;;18.55;3.83;;;5.00;99.90;;;;;;5042643;28;20079;-47
2022/01/20 10:56:10;;;;;;;20.90;3.97;;;5.10;99.90;;;;;;5047714;28;20049;-47
2022/01/20 10:58:36;;;;;;;15.73;3.35;;;5.30;99.90;;;;;;5044205;28;20491;-47
2022/01/20 11:01:04;;;;;;;23.08;4.72;;;5.30;99.90;;;;;;5027498;28;20068;-48
2022/01/20 11:03:35;;;;;;;25.70;4.78;;;5.10;99.90;;;;;;5044947;28;20072;-48
2022/01/20 11:06:01;;;;;;;19.52;4.10;;;4.80;99.90;;;;;;5045054;28;20063;-48
2022/01/20 11:08:44;;;;;;;21.75;3.55;;;4.60;99.90;;;;;;5043716;28;20057;-50
2022/01/20 11:11:09;;;;;;;13.15;3.15;;;4.40;99.90;;;;;;5035437;28;20041;-47
2022/01/20 11:13:37;;;;;;;16.33;3.58;;;4.20;99.90;;;;;;5044356;28;20110;-47
2022/01/20 11:16:03;;;;;;;16.83;2.95;;;4.20;99.90;;;;;;5033353;28;20348;-50
2022/01/20 11:18:29;;;;;;;14.93;2.60;;;4.00;99.90;;;;;;5021985;28;20053;-50
2022/01/20 11:20:56;;;;;;;21.77;3.17;;;3.90;99.90;;;;;;5044002;28;20114;-47
2022/01/20 11:23:37;;;;;;;16.25;2.80;;;3.80;99.90;;;;;;5045519;28;20045;-47
2022/01/20 11:26:07;;;;;;;13.02;3.13;;;3.70;99.90;;;;;;5017505;28;20136;-48
2022/01/20 11:28:33;;;;;;;12.05;2.60;;;3.70;99.90;;;;;;5044848;28;20045;-47
2022/01/20 11:31:03;;;;;;;20.50;3.92;;;3.70;99.90;;;;;;5047327;28;20063;-48
2022/01/20 11:33:35;;;;;;;14.98;3.20;;;3.80;99.90;;;;;;5033046;28;20041;-47
2022/01/20 11:36:01;;;;;;;17.73;3.75;;;4.10;99.90;;;;;;5048712;28;20052;-49
2022/01/20 11:38:48;;;;;;;16.77;4.47;;;4.30;99.90;;;;;;5049327;28;20075;-48
2022/01/20 11:41:16;;;;;;;15.60;3.00;;;4.10;99.90;;;;;;5049173;28;20056;-48
2022/01/20 11:43:45;;;;;;;9.93;2.08;;;3.90;99.90;;;;;;5031914;28;20084;-48
2022/01/20 11:46:16;;;;;;;10.85;2.42;;;3.70;99.90;;;;;;5007999;28;20053;-47
2022/01/20 11:48:58;;;;;;;13.43;2.83;;;3.50;99.90;;;;;;5045507;28;20041;-46
2022/01/20 11:51:41;;;;;;;15.13;2.92;;;3.40;99.90;;;;;;5046346;28;20696;-46
2022/01/20 11:54:08;;;;;;;13.70;2.92;;;3.30;99.90;;;;;;5028610;28;20135;-46
2022/01/20 11:56:38;;;;;;;19.35;2.75;;;3.30;99.90;;;;;;5045694;28;20403;-49
2022/01/20 11:59:12;;;;;;;14.30;3.40;;;3.40;99.90;;;;;;5028550;28;20049;-50
2022/01/20 12:01:51;;;;;;;17.23;3.63;;;3.40;99.90;;;;;;5045683;28;20053;-48
2022/01/20 12:04:17;;;;;;;17.77;3.70;;;3.50;99.90;;;;;;5045978;28;20044;-48
2022/01/20 12:06:48;;;;;;;15.85;3.47;;;3.60;99.90;;;;;;5028191;28;20053;-47
2022/01/20 12:09:26;;;;;;;22.83;3.90;;;3.60;99.90;;;;;;5027725;28;20131;-47
2022/01/20 12:11:53;;;;;;;16.77;3.20;;;3.70;99.90;;;;;;5028528;28;20119;-47
2022/01/20 12:14:35;;;;;;;21.48;3.20;;;3.90;99.90;;;;;;5046720;28;20048;-46
2022/01/20 12:17:11;;;;;;;15.05;3.33;;;4.00;99.90;;;;;;5045190;28;20184;-47
2022/01/20 12:19:37;;;;;;;16.27;4.13;;;4.20;99.90;;;;;;5046764;28;20053;-47
2022/01/20 12:22:05;;;;;;;18.33;3.35;;;4.30;99.90;;;;;;5028355;28;20134;-48
2022/01/20 12:24:32;;;;;;;16.98;5.63;;;4.60;99.90;;;;;;5042001;28;20045;-46
2022/01/20 12:26:58;;;;;;;20.45;3.63;;;4.60;99.90;;;;;;5035953;28;20045;-49
2022/01/20 12:29:38;;;;;;;18.48;4.22;;;4.60;99.90;;;;;;5047319;28;20151;-49
2022/01/20 12:32:17;;;;;;;24.08;4.65;;;4.50;99.90;;;;;;5036404;28;20084;-47
2022/01/20 12:34:44;;;;;;;17.92;4.18;;;4.50;99.90;;;;;;5026769;28;20056;-47
2022/01/20 12:37:11;;;;;;;15.18;3.15;;;4.50;99.90;;;;;;5047034;28;20491;-49
2022/01/20 12:39:39;;;;;;;18.63;3.95;;;4.50;99.90;;;;;;5047157;28;20045;-50
2022/01/20 12:42:08;;;;;;;23.55;3.42;;;4.60;99.90;;;;;;5046483;28;20742;-48
2022/01/20 12:44:41;;;;;;;14.60;3.15;;;4.60;99.90;;;;;;5053225;28;20536;-48
2022/01/20 12:47:10;;;;;;;13.50;3.67;;;4.50;99.90;;;;;;5047162;28;20573;-50
2022/01/20 12:49:36;;;;;;;13.65;2.45;;;4.40;99.90;;;;;;5046592;28;20128;-49
2022/01/20 12:52:05;;;;;;;19.17;3.33;;;4.40;99.90;;;;;;5047819;28;20815;-50
2022/01/20 12:54:34;;;;;;;14.88;3.50;;;4.30;99.90;;;;;;5045094;28;20084;-47
2022/01/20 12:57:06;;;;;;;17.05;3.10;;;4.20;99.90;;;;;;5047775;28;20062;-47
2022/01/20 12:59:37;;;;;;;12.50;3.88;;;4.10;99.90;;;;;;5043949;28;20400;-47
2022/01/20 13:02:23;;;;;;;14.30;2.95;;;4.10;99.90;;;;;;5044564;28;20053;-47
2022/01/20 13:05:00;;;;;;;13.80;2.90;;;4.00;99.90;;;;;;5011441;28;20103;-48
2022/01/20 13:07:27;;;;;;;18.75;3.78;;;3.90;99.90;;;;;;5041887;28;20419;-47
2022/01/20 13:10:06;;;;;;;14.93;2.83;;;3.90;99.90;;;;;;5045040;28;20479;-47
2022/01/20 13:12:40;;;;;;;16.60;4.68;;;4.00;99.90;;;;;;5027660;28;20570;-47
2022/01/20 13:15:27;;;;;;;12.68;2.83;;;4.10;99.90;;;;;;5044120;28;20068;-50
2022/01/20 13:18:13;;;;;;;16.23;2.78;;;4.10;99.90;;;;;;5044300;28;20064;-47
2022/01/20 13:20:59;;;;;;;17.90;3.75;;;4.10;99.90;;;;;;5043897;28;20590;-47
2022/01/20 13:23:57;;;;;;;19.75;3.75;;;4.00;99.90;;;;;;5024208;28;20428;-49
2022/01/20 13:26:26;;;;;;;12.57;2.47;;;4.10;99.90;;;;;;5021419;28;20379;-47
2022/01/20 13:29:05;;;;;;;32.72;19.35;;;4.10;99.90;;;;;;5026289;28;20124;-47
2022/01/20 13:31:36;;;;;;;11.10;2.67;;;4.20;99.90;;;;;;5024509;28;20176;-47
2022/01/20 13:34:20;;;;;;;15.73;3.13;;;4.30;99.90;;;;;;5016478;28;20045;-49
2022/01/20 13:36:51;;;;;;;;;;;4.40;99.90;;;;;;5024767;28;20060;-48
2022/01/20 13:39:37;;;;;;;13.43;2.72;;;4.50;99.90;;;;;;5025466;28;19972;-47
2022/01/20 13:45:15;;;;;;;9.40;2.00;;;4.40;99.90;;;;;;5024491;28;20056;-50
2022/01/20 13:47:58;;;;;;;11.05;2.13;;;4.10;99.90;;;;;;5025591;28;20080;-48
2022/01/20 13:50:38;;;;;;;7.78;1.58;;;3.90;99.90;;;;;;5025589;28;20050;-50
2022/01/20 13:53:27;;;;;;;5.38;1.10;;;3.70;99.90;;;;;;5026783;28;20536;-47
2022/01/20 13:56:00;;;;;;;5.70;1.40;;;3.50;99.90;;;;;;5024666;28;20849;-50
2022/01/20 13:58:34;;;;;;;11.02;1.70;;;3.40;99.90;;;;;;5027246;28;20083;-50
2022/01/20 14:01:06;;;;;;;7.28;1.50;;;3.40;99.90;;;;;;5025968;28;20064;-47
2022/01/20 14:03:32;;;;;;;11.63;2.10;;;3.30;99.90;;;;;;5027058;28;20049;-47
2022/01/20 14:05:58;;;;;;;9.20;1.60;;;3.30;99.90;;;;;;5025070;28;20053;-47
2022/01/20 14:08:25;;;;;;;10.15;1.58;;;3.40;99.90;;;;;;5024226;28;20050;-47
2022/01/20 14:10:56;;;;;;;11.00;1.90;;;3.50;99.90;;;;;;5023466;28;20472;-47
2022/01/20 14:13:22;;;;;;;7.85;1.92;;;3.70;99.90;;;;;;5025182;28;20498;-48
2022/01/20 14:15:51;;;;;;;11.63;2.15;;;3.90;99.90;;;;;;5021591;28;20077;-47
2022/01/20 14:18:20;;;;;;;11.27;2.85;;;4.10;99.90;;;;;;5021791;28;20127;-46
2022/01/20 14:20:46;;;;;;;9.35;2.55;;;4.20;99.90;;;;;;5017675;28;20104;-47
2022/01/20 14:23:16;;;;;;;9.10;2.15;;;4.20;99.90;;;;;;5026292;28;20064;-48